CheckWX is a tool to help pilots better visualize weather data.  It is not intended as a substitute for an official pre-flight weather briefing.

09:07:04 UTC

KLAS METAR
Mc Carran International Airport
Las Vegas, Nevada, USA
Current

11 mins ago

KLAS 210856Z 10004KT 10SM CLR 20/M03 A2993 RMK AO2 SLP115 T02001028 53009
Observed
Sep-21 @ 08:56 UTC
Wind
  • 100° at 4 KTS
Visibility
10 SM
Flight Rules
VFR
Cloud Levels
  • Clear skies
Temperature
20°C / 68°F
Dewpoint
-3°C / 27°F
Humidity
21%
Altimeter
29.93" Hg
Pressure
1013.52 hPa
Previous

1 hour ago

KLAS 210756Z 21004KT 10SM CLR 21/M04 A2992 RMK AO2 SLP112 T02061039 402830183
Observed
Sep-21 @ 07:56 UTC
Wind
  • 210° at 4 KTS
Visibility
10 SM
Flight Rules
VFR
Cloud Levels
  • Clear skies
Temperature
21°C / 70°F
Dewpoint
-4°C / 25°F
Humidity
18%
Altimeter
29.92" Hg
Pressure
1013.22 hPa
Previous

2 hours ago

KLAS 210656Z 25004KT 10SM CLR 22/M03 A2991 RMK AO2 SLP107 T02221033
Observed
Sep-21 @ 06:56 UTC
Wind
  • 250° at 4 KTS
Visibility
10 SM
Flight Rules
VFR
Cloud Levels
  • Clear skies
Temperature
22°C / 72°F
Dewpoint
-3°C / 27°F
Humidity
19%
Altimeter
29.91" Hg
Pressure
1012.92 hPa